METAR Data
IDs: Format: Raw Decoded Include TAF

Data at: 0246 UTC 20 Jan 2022

EGCC 200220Z AUTO VRB02KT 9999 NCD 00/M00 Q1033 NOSIG